sensor_id;sensor_type;location;lat;lon;timestamp;P1;durP1;ratioP1;P2;durP2;ratioP2
37115;SDS011;23025;41.996;23.098;2023-01-08T00:00:03;0.88;;;0.88;;
37115;SDS011;23025;41.996;23.098;2023-01-08T00:02:29;1.27;;;1.27;;
37115;SDS011;23025;41.996;23.098;2023-01-08T00:04:56;1.33;;;1.33;;
37115;SDS011;23025;41.996;23.098;2023-01-08T00:07:22;1.17;;;1.17;;
37115;SDS011;23025;41.996;23.098;2023-01-08T00:09:49;0.90;;;0.90;;
37115;SDS011;23025;41.996;23.098;2023-01-08T00:12:16;0.70;;;0.70;;
37115;SDS011;23025;41.996;23.098;2023-01-08T00:14:43;1.33;;;1.25;;
37115;SDS011;23025;41.996;23.098;2023-01-08T00:17:11;1.08;;;0.93;;
37115;SDS011;23025;41.996;23.098;2023-01-08T00:19:38;0.77;;;0.77;;
37115;SDS011;23025;41.996;23.098;2023-01-08T00:22:06;0.40;;;0.40;;
37115;SDS011;23025;41.996;23.098;2023-01-08T00:24:32;2.83;;;1.73;;
37115;SDS011;23025;41.996;23.098;2023-01-08T00:26:59;0.57;;;0.57;;
37115;SDS011;23025;41.996;23.098;2023-01-08T00:29:25;0.65;;;0.65;;
37115;SDS011;23025;41.996;23.098;2023-01-08T00:31:52;1.25;;;0.93;;
37115;SDS011;23025;41.996;23.098;2023-01-08T00:34:20;1.15;;;1.10;;
37115;SDS011;23025;41.996;23.098;2023-01-08T00:36:46;1.85;;;1.75;;
37115;SDS011;23025;41.996;23.098;2023-01-08T00:39:13;3.88;;;3.78;;
37115;SDS011;23025;41.996;23.098;2023-01-08T00:41:39;0.80;;;0.77;;
37115;SDS011;23025;41.996;23.098;2023-01-08T00:44:08;0.88;;;0.88;;
37115;SDS011;23025;41.996;23.098;2023-01-08T00:46:35;5.18;;;4.88;;
37115;SDS011;23025;41.996;23.098;2023-01-08T00:49:01;2.00;;;1.83;;
37115;SDS011;23025;41.996;23.098;2023-01-08T00:51:29;3.50;;;2.88;;
37115;SDS011;23025;41.996;23.098;2023-01-08T00:53:56;0.88;;;0.88;;
37115;SDS011;23025;41.996;23.098;2023-01-08T00:56:22;0.70;;;0.70;;
37115;SDS011;23025;41.996;23.098;2023-01-08T00:58:49;1.08;;;1.08;;
37115;SDS011;23025;41.996;23.098;2023-01-08T01:01:16;0.82;;;0.82;;
37115;SDS011;23025;41.996;23.098;2023-01-08T01:03:42;4.00;;;3.63;;
37115;SDS011;23025;41.996;23.098;2023-01-08T01:06:09;1.83;;;1.73;;
37115;SDS011;23025;41.996;23.098;2023-01-08T01:08:38;0.88;;;0.88;;
37115;SDS011;23025;41.996;23.098;2023-01-08T01:11:05;0.85;;;0.85;;
37115;SDS011;23025;41.996;23.098;2023-01-08T01:13:32;1.52;;;1.42;;
37115;SDS011;23025;41.996;23.098;2023-01-08T01:15:58;1.40;;;1.35;;
37115;SDS011;23025;41.996;23.098;2023-01-08T01:18:25;1.40;;;1.30;;
37115;SDS011;23025;41.996;23.098;2023-01-08T01:20:52;1.33;;;1.33;;
37115;SDS011;23025;41.996;23.098;2023-01-08T01:23:19;0.57;;;0.57;;
37115;SDS011;23025;41.996;23.098;2023-01-08T01:25:47;1.38;;;1.27;;
37115;SDS011;23025;41.996;23.098;2023-01-08T01:28:14;0.55;;;0.55;;
37115;SDS011;23025;41.996;23.098;2023-01-08T01:30:41;0.52;;;0.52;;
37115;SDS011;23025;41.996;23.098;2023-01-08T01:33:07;0.50;;;0.50;;
37115;SDS011;23025;41.996;23.098;2023-01-08T01:35:34;1.05;;;1.05;;
37115;SDS011;23025;41.996;23.098;2023-01-08T01:38:01;0.80;;;0.80;;
37115;SDS011;23025;41.996;23.098;2023-01-08T01:40:27;6.00;;;5.80;;
37115;SDS011;23025;41.996;23.098;2023-01-08T01:42:55;1.48;;;1.38;;
37115;SDS011;23025;41.996;23.098;2023-01-08T01:45:22;0.93;;;0.93;;
37115;SDS011;23025;41.996;23.098;2023-01-08T01:47:52;1.05;;;1.05;;
37115;SDS011;23025;41.996;23.098;2023-01-08T01:50:20;0.73;;;0.70;;
37115;SDS011;23025;41.996;23.098;2023-01-08T01:52:49;1.92;;;1.83;;
37115;SDS011;23025;41.996;23.098;2023-01-08T01:55:17;1.33;;;1.33;;
37115;SDS011;23025;41.996;23.098;2023-01-08T03:49:09;1.23;;;1.13;;
37115;SDS011;23025;41.996;23.098;2023-01-08T03:51:40;1.65;;;1.55;;
37115;SDS011;23025;41.996;23.098;2023-01-08T03:54:06;4.43;;;4.22;;
37115;SDS011;23025;41.996;23.098;2023-01-08T03:56:34;1.25;;;1.23;;
37115;SDS011;23025;41.996;23.098;2023-01-08T03:59:01;2.38;;;0.75;;
37115;SDS011;23025;41.996;23.098;2023-01-08T04:01:27;0.28;;;0.28;;
37115;SDS011;23025;41.996;23.098;2023-01-08T04:03:54;0.80;;;0.73;;
37115;SDS011;23025;41.996;23.098;2023-01-08T04:06:22;1.02;;;1.02;;
37115;SDS011;23025;41.996;23.098;2023-01-08T04:08:49;0.75;;;0.75;;
37115;SDS011;23025;41.996;23.098;2023-01-08T04:11:15;0.57;;;0.38;;
37115;SDS011;23025;41.996;23.098;2023-01-08T04:13:42;1.63;;;1.52;;
37115;SDS011;23025;41.996;23.098;2023-01-08T04:16:08;3.08;;;2.95;;
37115;SDS011;23025;41.996;23.098;2023-01-08T04:18:35;1.55;;;1.45;;
37115;SDS011;23025;41.996;23.098;2023-01-08T04:21:01;2.38;;;2.28;;
37115;SDS011;23025;41.996;23.098;2023-01-08T04:23:29;0.68;;;0.68;;
37115;SDS011;23025;41.996;23.098;2023-01-08T04:25:56;0.60;;;0.60;;
37115;SDS011;23025;41.996;23.098;2023-01-08T04:28:22;2.05;;;1.95;;
37115;SDS011;23025;41.996;23.098;2023-01-08T04:30:50;0.98;;;0.98;;
37115;SDS011;23025;41.996;23.098;2023-01-08T04:33:16;1.17;;;1.17;;
37115;SDS011;23025;41.996;23.098;2023-01-08T04:35:43;0.73;;;0.73;;
37115;SDS011;23025;41.996;23.098;2023-01-08T04:38:09;1.17;;;1.17;;
37115;SDS011;23025;41.996;23.098;2023-01-08T04:40:37;0.43;;;0.43;;
37115;SDS011;23025;41.996;23.098;2023-01-08T04:43:04;0.52;;;0.52;;
37115;SDS011;23025;41.996;23.098;2023-01-08T04:45:30;1.27;;;1.27;;
37115;SDS011;23025;41.996;23.098;2023-01-08T04:47:57;2.67;;;2.50;;
37115;SDS011;23025;41.996;23.098;2023-01-08T04:50:24;0.70;;;0.70;;
37115;SDS011;23025;41.996;23.098;2023-01-08T04:52:51;2.75;;;1.83;;
37115;SDS011;23025;41.996;23.098;2023-01-08T04:55:18;0.55;;;0.55;;
37115;SDS011;23025;41.996;23.098;2023-01-08T04:57:46;0.70;;;0.70;;
37115;SDS011;23025;41.996;23.098;2023-01-08T05:00:13;0.98;;;0.98;;
37115;SDS011;23025;41.996;23.098;2023-01-08T05:02:40;4.13;;;1.60;;
37115;SDS011;23025;41.996;23.098;2023-01-08T05:05:06;0.73;;;0.73;;
37115;SDS011;23025;41.996;23.098;2023-01-08T05:07:33;1.40;;;1.10;;
37115;SDS011;23025;41.996;23.098;2023-01-08T05:10:00;2.15;;;2.05;;
37115;SDS011;23025;41.996;23.098;2023-01-08T05:12:26;0.43;;;0.43;;
37115;SDS011;23025;41.996;23.098;2023-01-08T05:14:54;3.03;;;2.83;;
37115;SDS011;23025;41.996;23.098;2023-01-08T05:17:21;0.60;;;0.60;;
37115;SDS011;23025;41.996;23.098;2023-01-08T05:19:47;1.08;;;1.08;;
37115;SDS011;23025;41.996;23.098;2023-01-08T05:22:14;1.83;;;1.73;;
37115;SDS011;23025;41.996;23.098;2023-01-08T05:24:40;2.97;;;2.40;;
37115;SDS011;23025;41.996;23.098;2023-01-08T05:27:07;1.65;;;1.55;;
37115;SDS011;23025;41.996;23.098;2023-01-08T05:29:34;1.35;;;1.35;;
37115;SDS011;23025;41.996;23.098;2023-01-08T05:32:02;0.55;;;0.55;;
37115;SDS011;23025;41.996;23.098;2023-01-08T05:34:28;1.08;;;1.08;;
37115;SDS011;23025;41.996;23.098;2023-01-08T05:36:55;1.05;;;1.05;;
37115;SDS011;23025;41.996;23.098;2023-01-08T05:39:21;1.30;;;1.20;;
37115;SDS011;23025;41.996;23.098;2023-01-08T05:41:48;1.73;;;1.63;;
37115;SDS011;23025;41.996;23.098;2023-01-08T05:44:14;2.22;;;2.13;;
37115;SDS011;23025;41.996;23.098;2023-01-08T05:46:41;2.63;;;2.42;;
37115;SDS011;23025;41.996;23.098;2023-01-08T05:49:09;1.30;;;1.20;;
37115;SDS011;23025;41.996;23.098;2023-01-08T05:51:35;0.45;;;0.45;;
37115;SDS011;23025;41.996;23.098;2023-01-08T05:54:02;0.75;;;0.75;;
37115;SDS011;23025;41.996;23.098;2023-01-08T05:56:28;1.73;;;1.65;;
37115;SDS011;23025;41.996;23.098;2023-01-08T05:58:55;0.50;;;0.50;;
37115;SDS011;23025;41.996;23.098;2023-01-08T06:01:22;1.90;;;1.80;;
37115;SDS011;23025;41.996;23.098;2023-01-08T06:03:48;1.30;;;1.25;;
37115;SDS011;23025;41.996;23.098;2023-01-08T06:06:16;1.45;;;1.05;;
37115;SDS011;23025;41.996;23.098;2023-01-08T06:08:42;1.25;;;0.93;;
37115;SDS011;23025;41.996;23.098;2023-01-08T06:11:09;0.57;;;0.57;;
37115;SDS011;23025;41.996;23.098;2023-01-08T06:13:36;0.35;;;0.35;;
37115;SDS011;23025;41.996;23.098;2023-01-08T06:16:03;2.75;;;2.55;;
37115;SDS011;23025;41.996;23.098;2023-01-08T06:18:29;3.33;;;3.13;;
37115;SDS011;23025;41.996;23.098;2023-01-08T06:20:56;0.80;;;0.73;;
37115;SDS011;23025;41.996;23.098;2023-01-08T06:23:24;1.40;;;1.30;;
37115;SDS011;23025;41.996;23.098;2023-01-08T06:25:51;2.00;;;1.85;;
37115;SDS011;23025;41.996;23.098;2023-01-08T06:28:17;1.95;;;1.85;;
37115;SDS011;23025;41.996;23.098;2023-01-08T06:30:44;2.30;;;1.77;;
37115;SDS011;23025;41.996;23.098;2023-01-08T06:33:10;1.55;;;1.45;;
37115;SDS011;23025;41.996;23.098;2023-01-08T06:35:37;1.15;;;1.13;;
37115;SDS011;23025;41.996;23.098;2023-01-08T06:38:03;4.30;;;4.07;;
37115;SDS011;23025;41.996;23.098;2023-01-08T06:40:31;5.38;;;5.05;;
37115;SDS011;23025;41.996;23.098;2023-01-08T06:42:59;1.52;;;1.42;;
37115;SDS011;23025;41.996;23.098;2023-01-08T06:45:26;1.45;;;1.35;;
37115;SDS011;23025;41.996;23.098;2023-01-08T06:47:52;2.00;;;1.90;;
37115;SDS011;23025;41.996;23.098;2023-01-08T06:50:19;1.35;;;1.35;;
37115;SDS011;23025;41.996;23.098;2023-01-08T06:52:50;1.33;;;1.33;;
37115;SDS011;23025;41.996;23.098;2023-01-08T06:55:18;1.30;;;1.25;;
37115;SDS011;23025;41.996;23.098;2023-01-08T06:57:45;2.10;;;2.00;;
37115;SDS011;23025;41.996;23.098;2023-01-08T07:00:12;1.17;;;1.15;;
37115;SDS011;23025;41.996;23.098;2023-01-08T07:02:39;1.10;;;1.10;;
37115;SDS011;23025;41.996;23.098;2023-01-08T07:05:06;1.85;;;1.70;;
37115;SDS011;23025;41.996;23.098;2023-01-08T07:07:32;0.68;;;0.68;;
37115;SDS011;23025;41.996;23.098;2023-01-08T07:09:59;1.77;;;1.67;;
37115;SDS011;23025;41.996;23.098;2023-01-08T07:12:25;1.77;;;1.67;;
37115;SDS011;23025;41.996;23.098;2023-01-08T07:14:53;1.52;;;1.42;;
37115;SDS011;23025;41.996;23.098;2023-01-08T07:17:20;3.20;;;1.88;;
37115;SDS011;23025;41.996;23.098;2023-01-08T07:19:46;1.38;;;1.30;;
37115;SDS011;23025;41.996;23.098;2023-01-08T07:22:13;1.90;;;1.80;;
37115;SDS011;23025;41.996;23.098;2023-01-08T07:24:39;1.10;;;1.05;;
37115;SDS011;23025;41.996;23.098;2023-01-08T07:27:06;8.82;;;3.17;;
37115;SDS011;23025;41.996;23.098;2023-01-08T07:29:33;2.53;;;2.42;;
37115;SDS011;23025;41.996;23.098;2023-01-08T07:32:00;1.77;;;1.67;;
37115;SDS011;23025;41.996;23.098;2023-01-08T07:34:27;1.63;;;1.52;;
37115;SDS011;23025;41.996;23.098;2023-01-08T07:36:54;0.90;;;0.90;;
37115;SDS011;23025;41.996;23.098;2023-01-08T07:39:20;0.82;;;0.82;;
37115;SDS011;23025;41.996;23.098;2023-01-08T07:41:47;2.20;;;2.08;;
37115;SDS011;23025;41.996;23.098;2023-01-08T07:44:13;1.98;;;1.88;;
37115;SDS011;23025;41.996;23.098;2023-01-08T07:46:40;1.95;;;1.85;;
37115;SDS011;23025;41.996;23.098;2023-01-08T07:49:08;1.23;;;1.13;;
37115;SDS011;23025;41.996;23.098;2023-01-08T07:51:34;1.55;;;1.45;;
37115;SDS011;23025;41.996;23.098;2023-01-08T07:54:01;0.77;;;0.77;;
37115;SDS011;23025;41.996;23.098;2023-01-08T07:56:27;1.45;;;1.35;;
37115;SDS011;23025;41.996;23.098;2023-01-08T07:58:54;4.03;;;3.72;;
37115;SDS011;23025;41.996;23.098;2023-01-08T08:01:21;1.38;;;1.30;;
37115;SDS011;23025;41.996;23.098;2023-01-08T08:03:48;1.15;;;1.13;;
37115;SDS011;23025;41.996;23.098;2023-01-08T08:06:16;2.92;;;1.40;;
37115;SDS011;23025;41.996;23.098;2023-01-08T08:08:42;2.50;;;1.88;;
37115;SDS011;23025;41.996;23.098;2023-01-08T08:11:09;2.30;;;1.95;;
37115;SDS011;23025;41.996;23.098;2023-01-08T08:13:35;1.17;;;1.15;;
37115;SDS011;23025;41.996;23.098;2023-01-08T08:16:06;4.13;;;3.83;;
37115;SDS011;23025;41.996;23.098;2023-01-08T08:18:33;3.13;;;2.85;;
37115;SDS011;23025;41.996;23.098;2023-01-08T08:21:00;2.70;;;2.60;;
37115;SDS011;23025;41.996;23.098;2023-01-08T08:23:28;1.67;;;1.58;;
37115;SDS011;23025;41.996;23.098;2023-01-08T08:25:56;1.70;;;1.60;;
37115;SDS011;23025;41.996;23.098;2023-01-08T08:28:22;1.42;;;1.38;;
37115;SDS011;23025;41.996;23.098;2023-01-08T08:30:50;4.20;;;3.80;;
37115;SDS011;23025;41.996;23.098;2023-01-08T08:33:16;2.00;;;1.90;;
37115;SDS011;23025;41.996;23.098;2023-01-08T08:35:46;2.40;;;2.00;;
37115;SDS011;23025;41.996;23.098;2023-01-08T08:38:13;1.58;;;1.48;;
37115;SDS011;23025;41.996;23.098;2023-01-08T08:40:41;4.93;;;1.58;;
37115;SDS011;23025;41.996;23.098;2023-01-08T08:43:08;4.15;;;3.95;;
37115;SDS011;23025;41.996;23.098;2023-01-08T08:45:35;5.60;;;2.28;;
37115;SDS011;23025;41.996;23.098;2023-01-08T08:48:03;2.80;;;2.60;;
37115;SDS011;23025;41.996;23.098;2023-01-08T08:50:30;2.70;;;2.53;;
37115;SDS011;23025;41.996;23.098;2023-01-08T08:52:57;2.17;;;2.03;;
37115;SDS011;23025;41.996;23.098;2023-01-08T08:55:24;2.65;;;2.28;;
37115;SDS011;23025;41.996;23.098;2023-01-08T08:57:52;6.45;;;3.28;;
37115;SDS011;23025;41.996;23.098;2023-01-08T09:00:18;5.72;;;5.22;;
37115;SDS011;23025;41.996;23.098;2023-01-08T09:02:45;2.35;;;2.25;;
37115;SDS011;23025;41.996;23.098;2023-01-08T09:05:14;3.90;;;3.53;;
37115;SDS011;23025;41.996;23.098;2023-01-08T09:07:41;4.95;;;3.38;;
37115;SDS011;23025;41.996;23.098;2023-01-08T09:10:07;18.70;;;5.13;;
37115;SDS011;23025;41.996;23.098;2023-01-08T09:12:34;2.00;;;1.90;;
37115;SDS011;23025;41.996;23.098;2023-01-08T09:15:02;1.38;;;1.33;;
37115;SDS011;23025;41.996;23.098;2023-01-08T09:17:29;4.28;;;3.97;;
37115;SDS011;23025;41.996;23.098;2023-01-08T09:19:56;17.38;;;3.47;;
37115;SDS011;23025;41.996;23.098;2023-01-08T09:22:22;0.75;;;0.75;;
37115;SDS011;23025;41.996;23.098;2023-01-08T09:24:49;1.23;;;1.15;;
37115;SDS011;23025;41.996;23.098;2023-01-08T09:27:15;3.13;;;2.85;;
37115;SDS011;23025;41.996;23.098;2023-01-08T09:29:42;4.85;;;4.45;;
37115;SDS011;23025;41.996;23.098;2023-01-08T09:32:09;5.18;;;4.78;;
37115;SDS011;23025;41.996;23.098;2023-01-08T09:34:36;1.13;;;1.13;;
37115;SDS011;23025;41.996;23.098;2023-01-08T09:37:03;1.45;;;1.38;;
37115;SDS011;23025;41.996;23.098;2023-01-08T09:39:29;3.50;;;3.17;;
37115;SDS011;23025;41.996;23.098;2023-01-08T09:41:56;5.75;;;4.68;;
37115;SDS011;23025;41.996;23.098;2023-01-08T09:44:25;4.15;;;2.65;;
37115;SDS011;23025;41.996;23.098;2023-01-08T09:46:54;3.38;;;3.15;;
37115;SDS011;23025;41.996;23.098;2023-01-08T09:49:23;1.58;;;1.50;;
37115;SDS011;23025;41.996;23.098;2023-01-08T09:51:52;5.03;;;3.35;;
37115;SDS011;23025;41.996;23.098;2023-01-08T09:54:19;6.28;;;5.22;;
37115;SDS011;23025;41.996;23.098;2023-01-08T09:56:46;3.03;;;2.78;;
37115;SDS011;23025;41.996;23.098;2023-01-08T09:59:13;4.13;;;3.53;;
37115;SDS011;23025;41.996;23.098;2023-01-08T10:01:41;6.90;;;6.50;;
37115;SDS011;23025;41.996;23.098;2023-01-08T10:04:11;8.07;;;5.57;;
37115;SDS011;23025;41.996;23.098;2023-01-08T10:06:40;8.45;;;6.35;;
37115;SDS011;23025;41.996;23.098;2023-01-08T10:09:12;2.20;;;2.10;;
37115;SDS011;23025;41.996;23.098;2023-01-08T10:11:39;5.28;;;4.13;;
37115;SDS011;23025;41.996;23.098;2023-01-08T10:14:07;7.30;;;4.47;;
37115;SDS011;23025;41.996;23.098;2023-01-08T10:16:41;4.15;;;2.72;;
37115;SDS011;23025;41.996;23.098;2023-01-08T10:19:08;12.68;;;5.60;;
37115;SDS011;23025;41.996;23.098;2023-01-08T10:21:36;8.50;;;7.80;;
37115;SDS011;23025;41.996;23.098;2023-01-08T10:24:06;3.35;;;1.85;;
37115;SDS011;23025;41.996;23.098;2023-01-08T10:26:34;5.30;;;4.78;;
37115;SDS011;23025;41.996;23.098;2023-01-08T10:29:05;6.03;;;5.32;;
37115;SDS011;23025;41.996;23.098;2023-01-08T10:31:31;5.35;;;5.05;;
37115;SDS011;23025;41.996;23.098;2023-01-08T10:34:05;9.35;;;7.80;;
37115;SDS011;23025;41.996;23.098;2023-01-08T10:36:36;3.92;;;3.60;;
37115;SDS011;23025;41.996;23.098;2023-01-08T10:39:05;5.68;;;5.13;;
37115;SDS011;23025;41.996;23.098;2023-01-08T10:41:35;12.38;;;5.90;;
37115;SDS011;23025;41.996;23.098;2023-01-08T10:44:04;5.15;;;4.63;;
37115;SDS011;23025;41.996;23.098;2023-01-08T10:46:33;6.30;;;5.72;;
37115;SDS011;23025;41.996;23.098;2023-01-08T10:49:01;2.70;;;2.50;;
37115;SDS011;23025;41.996;23.098;2023-01-08T10:51:29;3.58;;;3.33;;
37115;SDS011;23025;41.996;23.098;2023-01-08T10:53:57;5.50;;;4.57;;
37115;SDS011;23025;41.996;23.098;2023-01-08T10:56:26;2.38;;;2.25;;
37115;SDS011;23025;41.996;23.098;2023-01-08T10:58:53;1.73;;;1.63;;
37115;SDS011;23025;41.996;23.098;2023-01-08T11:01:21;3.90;;;3.47;;
37115;SDS011;23025;41.996;23.098;2023-01-08T11:03:48;5.18;;;4.70;;
37115;SDS011;23025;41.996;23.098;2023-01-08T11:06:17;5.18;;;4.40;;
37115;SDS011;23025;41.996;23.098;2023-01-08T11:08:48;3.75;;;3.40;;
37115;SDS011;23025;41.996;23.098;2023-01-08T11:11:15;3.85;;;3.55;;
37115;SDS011;23025;41.996;23.098;2023-01-08T11:13:48;5.53;;;3.80;;
37115;SDS011;23025;41.996;23.098;2023-01-08T11:16:16;8.05;;;3.15;;
37115;SDS011;23025;41.996;23.098;2023-01-08T11:18:44;2.67;;;2.47;;
37115;SDS011;23025;41.996;23.098;2023-01-08T11:21:17;4.32;;;4.03;;
37115;SDS011;23025;41.996;23.098;2023-01-08T11:23:44;3.22;;;2.80;;
37115;SDS011;23025;41.996;23.098;2023-01-08T11:26:13;5.75;;;4.32;;
37115;SDS011;23025;41.996;23.098;2023-01-08T11:28:49;5.05;;;3.65;;
37115;SDS011;23025;41.996;23.098;2023-01-08T11:31:18;3.13;;;2.90;;
37115;SDS011;23025;41.996;23.098;2023-01-08T11:33:46;6.88;;;3.47;;
37115;SDS011;23025;41.996;23.098;2023-01-08T11:36:19;4.38;;;4.10;;
37115;SDS011;23025;41.996;23.098;2023-01-08T11:38:49;3.60;;;3.40;;
37115;SDS011;23025;41.996;23.098;2023-01-08T11:41:18;3.97;;;2.42;;
37115;SDS011;23025;41.996;23.098;2023-01-08T11:43:53;2.72;;;2.50;;
37115;SDS011;23025;41.996;23.098;2023-01-08T11:46:25;3.47;;;3.17;;
37115;SDS011;23025;41.996;23.098;2023-01-08T11:48:59;2.63;;;2.42;;
37115;SDS011;23025;41.996;23.098;2023-01-08T11:51:32;4.82;;;4.10;;
37115;SDS011;23025;41.996;23.098;2023-01-08T11:54:03;2.90;;;2.70;;
37115;SDS011;23025;41.996;23.098;2023-01-08T11:56:35;4.07;;;3.75;;
37115;SDS011;23025;41.996;23.098;2023-01-08T11:59:07;3.17;;;3.00;;
37115;SDS011;23025;41.996;23.098;2023-01-08T12:01:43;6.93;;;2.97;;
37115;SDS011;23025;41.996;23.098;2023-01-08T12:04:16;2.88;;;2.65;;
37115;SDS011;23025;41.996;23.098;2023-01-08T12:06:46;1.05;;;0.95;;
37115;SDS011;23025;41.996;23.098;2023-01-08T12:09:16;3.42;;;3.13;;
37115;SDS011;23025;41.996;23.098;2023-01-08T12:11:46;2.60;;;2.47;;
37115;SDS011;23025;41.996;23.098;2023-01-08T12:14:24;5.28;;;3.70;;
37115;SDS011;23025;41.996;23.098;2023-01-08T12:17:00;3.20;;;3.00;;
37115;SDS011;23025;41.996;23.098;2023-01-08T12:19:33;4.03;;;3.50;;
37115;SDS011;23025;41.996;23.098;2023-01-08T12:22:06;3.63;;;3.30;;
37115;SDS011;23025;41.996;23.098;2023-01-08T12:24:39;3.45;;;2.97;;
37115;SDS011;23025;41.996;23.098;2023-01-08T12:27:10;3.08;;;2.85;;
37115;SDS011;23025;41.996;23.098;2023-01-08T12:29:45;6.70;;;6.30;;
37115;SDS011;23025;41.996;23.098;2023-01-08T12:32:19;6.10;;;5.80;;
37115;SDS011;23025;41.996;23.098;2023-01-08T12:34:50;5.00;;;2.78;;
37115;SDS011;23025;41.996;23.098;2023-01-08T12:37:20;5.90;;;4.18;;
37115;SDS011;23025;41.996;23.098;2023-01-08T12:39:49;3.63;;;3.35;;
37115;SDS011;23025;41.996;23.098;2023-01-08T12:42:18;3.78;;;3.47;;
37115;SDS011;23025;41.996;23.098;2023-01-08T12:44:50;2.80;;;2.60;;
37115;SDS011;23025;41.996;23.098;2023-01-08T12:47:17;4.57;;;4.25;;
37115;SDS011;23025;41.996;23.098;2023-01-08T12:49:47;4.40;;;3.83;;
37115;SDS011;23025;41.996;23.098;2023-01-08T12:52:16;4.97;;;4.68;;
37115;SDS011;23025;41.996;23.098;2023-01-08T12:54:46;7.75;;;5.68;;
37115;SDS011;23025;41.996;23.098;2023-01-08T12:57:15;4.80;;;3.92;;
37115;SDS011;23025;41.996;23.098;2023-01-08T12:59:44;6.70;;;6.28;;
37115;SDS011;23025;41.996;23.098;2023-01-08T13:02:26;4.72;;;3.85;;
37115;SDS011;23025;41.996;23.098;2023-01-08T13:05:08;5.90;;;5.28;;
37115;SDS011;23025;41.996;23.098;2023-01-08T13:07:36;6.90;;;5.20;;
37115;SDS011;23025;41.996;23.098;2023-01-08T13:10:04;3.83;;;3.50;;
37115;SDS011;23025;41.996;23.098;2023-01-08T13:12:33;4.97;;;4.65;;
37115;SDS011;23025;41.996;23.098;2023-01-08T13:15:00;5.50;;;5.07;;
37115;SDS011;23025;41.996;23.098;2023-01-08T13:17:28;6.15;;;5.60;;
37115;SDS011;23025;41.996;23.098;2023-01-08T13:19:57;6.50;;;4.03;;
37115;SDS011;23025;41.996;23.098;2023-01-08T13:22:25;4.45;;;4.13;;
37115;SDS011;23025;41.996;23.098;2023-01-08T13:25:06;8.50;;;5.80;;
37115;SDS011;23025;41.996;23.098;2023-01-08T13:27:33;5.78;;;5.20;;
37115;SDS011;23025;41.996;23.098;2023-01-08T13:29:59;6.85;;;6.22;;
37115;SDS011;23025;41.996;23.098;2023-01-08T13:32:41;5.93;;;5.47;;
37115;SDS011;23025;41.996;23.098;2023-01-08T13:35:21;8.43;;;7.63;;
37115;SDS011;23025;41.996;23.098;2023-01-08T13:37:48;8.32;;;7.70;;
37115;SDS011;23025;41.996;23.098;2023-01-08T13:42:57;6.90;;;6.32;;
37115;SDS011;23025;41.996;23.098;2023-01-08T13:45:24;5.88;;;5.00;;
37115;SDS011;23025;41.996;23.098;2023-01-08T13:47:54;7.18;;;5.63;;
37115;SDS011;23025;41.996;23.098;2023-01-08T13:50:22;5.75;;;5.10;;
37115;SDS011;23025;41.996;23.098;2023-01-08T13:52:53;4.00;;;3.65;;
37115;SDS011;23025;41.996;23.098;2023-01-08T13:55:23;9.68;;;5.65;;
37115;SDS011;23025;41.996;23.098;2023-01-08T13:57:53;4.53;;;4.13;;
37115;SDS011;23025;41.996;23.098;2023-01-08T14:00:21;5.82;;;5.38;;
37115;SDS011;23025;41.996;23.098;2023-01-08T14:02:49;6.70;;;6.15;;
37115;SDS011;23025;41.996;23.098;2023-01-08T14:05:21;7.72;;;6.25;;
37115;SDS011;23025;41.996;23.098;2023-01-08T14:07:49;4.75;;;4.45;;
37115;SDS011;23025;41.996;23.098;2023-01-08T14:10:16;6.35;;;5.90;;
37115;SDS011;23025;41.996;23.098;2023-01-08T14:12:43;6.20;;;5.80;;
37115;SDS011;23025;41.996;23.098;2023-01-08T14:15:14;7.55;;;5.88;;
37115;SDS011;23025;41.996;23.098;2023-01-08T14:17:42;4.93;;;4.28;;
37115;SDS011;23025;41.996;23.098;2023-01-08T14:20:09;7.22;;;5.53;;
37115;SDS011;23025;41.996;23.098;2023-01-08T14:22:38;9.20;;;4.78;;
37115;SDS011;23025;41.996;23.098;2023-01-08T14:25:07;9.05;;;4.97;;
37115;SDS011;23025;41.996;23.098;2023-01-08T14:27:33;5.18;;;4.78;;
37115;SDS011;23025;41.996;23.098;2023-01-08T14:30:00;6.38;;;5.88;;
37115;SDS011;23025;41.996;23.098;2023-01-08T14:32:27;4.60;;;4.20;;
37115;SDS011;23025;41.996;23.098;2023-01-08T14:34:54;6.57;;;4.50;;
37115;SDS011;23025;41.996;23.098;2023-01-08T14:37:22;8.07;;;5.15;;
37115;SDS011;23025;41.996;23.098;2023-01-08T14:39:50;8.80;;;4.40;;
37115;SDS011;23025;41.996;23.098;2023-01-08T14:42:17;4.55;;;4.15;;
37115;SDS011;23025;41.996;23.098;2023-01-08T14:45:03;3.47;;;3.20;;
37115;SDS011;23025;41.996;23.098;2023-01-08T14:47:32;5.63;;;5.13;;
37115;SDS011;23025;41.996;23.098;2023-01-08T14:50:00;4.82;;;4.47;;
37115;SDS011;23025;41.996;23.098;2023-01-08T14:52:26;6.20;;;4.20;;
37115;SDS011;23025;41.996;23.098;2023-01-08T14:54:55;5.90;;;4.10;;
37115;SDS011;23025;41.996;23.098;2023-01-08T14:57:23;5.38;;;4.97;;
37115;SDS011;23025;41.996;23.098;2023-01-08T14:59:51;6.57;;;4.68;;
37115;SDS011;23025;41.996;23.098;2023-01-08T15:02:21;6.50;;;6.00;;
37115;SDS011;23025;41.996;23.098;2023-01-08T15:04:58;7.78;;;6.55;;
37115;SDS011;23025;41.996;23.098;2023-01-08T15:07:25;7.20;;;6.63;;
37115;SDS011;23025;41.996;23.098;2023-01-08T15:09:56;3.58;;;3.38;;
37115;SDS011;23025;41.996;23.098;2023-01-08T15:12:24;5.72;;;5.25;;
37115;SDS011;23025;41.996;23.098;2023-01-08T15:14:51;12.55;;;4.75;;
37115;SDS011;23025;41.996;23.098;2023-01-08T15:17:19;3.80;;;3.53;;
37115;SDS011;23025;41.996;23.098;2023-01-08T15:19:47;2.35;;;2.15;;
37115;SDS011;23025;41.996;23.098;2023-01-08T15:22:15;7.82;;;5.30;;
37115;SDS011;23025;41.996;23.098;2023-01-08T15:24:44;2.63;;;2.42;;
37115;SDS011;23025;41.996;23.098;2023-01-08T15:27:17;5.93;;;5.50;;
37115;SDS011;23025;41.996;23.098;2023-01-08T15:29:46;2.95;;;2.75;;
37115;SDS011;23025;41.996;23.098;2023-01-08T15:32:18;2.80;;;2.50;;
37115;SDS011;23025;41.996;23.098;2023-01-08T15:34:46;2.28;;;2.17;;
37115;SDS011;23025;41.996;23.098;2023-01-08T15:37:13;3.03;;;2.83;;
37115;SDS011;23025;41.996;23.098;2023-01-08T15:39:39;5.45;;;5.18;;
37115;SDS011;23025;41.996;23.098;2023-01-08T15:42:09;4.03;;;2.88;;
37115;SDS011;23025;41.996;23.098;2023-01-08T15:44:57;2.05;;;1.90;;
37115;SDS011;23025;41.996;23.098;2023-01-08T15:47:23;6.03;;;3.78;;
37115;SDS011;23025;41.996;23.098;2023-01-08T15:49:50;3.78;;;2.90;;
37115;SDS011;23025;41.996;23.098;2023-01-08T15:52:19;3.53;;;2.97;;
37115;SDS011;23025;41.996;23.098;2023-01-08T15:54:47;2.08;;;1.95;;
37115;SDS011;23025;41.996;23.098;2023-01-08T15:57:13;5.05;;;3.17;;
37115;SDS011;23025;41.996;23.098;2023-01-08T15:59:40;5.35;;;3.97;;
37115;SDS011;23025;41.996;23.098;2023-01-08T16:02:09;2.65;;;2.45;;
37115;SDS011;23025;41.996;23.098;2023-01-08T16:04:36;2.35;;;2.25;;
37115;SDS011;23025;41.996;23.098;2023-01-08T16:07:04;3.78;;;3.47;;
37115;SDS011;23025;41.996;23.098;2023-01-08T16:09:30;5.13;;;3.83;;
37115;SDS011;23025;41.996;23.098;2023-01-08T16:11:57;4.30;;;3.80;;
37115;SDS011;23025;41.996;23.098;2023-01-08T16:14:23;2.42;;;2.30;;
37115;SDS011;23025;41.996;23.098;2023-01-08T16:16:50;6.35;;;5.85;;
37115;SDS011;23025;41.996;23.098;2023-01-08T16:19:17;6.68;;;5.85;;
37115;SDS011;23025;41.996;23.098;2023-01-08T16:21:44;5.65;;;5.15;;
37115;SDS011;23025;41.996;23.098;2023-01-08T16:24:11;4.50;;;4.13;;
37115;SDS011;23025;41.996;23.098;2023-01-08T16:26:37;18.90;;;7.75;;
37115;SDS011;23025;41.996;23.098;2023-01-08T16:29:04;9.52;;;5.78;;
37115;SDS011;23025;41.996;23.098;2023-01-08T16:31:30;5.72;;;5.32;;